SBKG

Details ICAO SBKG (CPV)
Name PRESIDENTE JOAO SUASSUNA
Region Brazil
Timezone America/Fortaleza (UTC-3.0)
Plans Departing 20
Arriving 15
Stats Elevation 1,646 ft / 502 m (AMSL)
Location -7.269916° -35.896364°
Runways 1
Magnetic Variation 21.909° W
Sunrise 2018-05-26 08:29:47 UTC / 2018-05-26 05:29:47 Local
Sunset 2018-05-26 20:14:23 UTC / 2018-05-26 17:14:23 Local
Advertisement - Login to hide

Runways

ID Width Length Bearing (true) Bearing (mag) Surface Threshold Offset Overrun Length
15 138 ft / 42 m 5,262 ft / 1,604 m 125.55° 147.46° Asphalt 0 ft / 0 m 170 ft / 52 m
33 138 ft / 42 m 5,262 ft / 1,604 m 305.54° 327.45° Asphalt 0 ft / 0 m 200 ft / 61 m

Map

Weather


0- 5 10 15 20 25 30 35+ Temperature / ° C

Clouds and Precipitation
Forecast for 2018-05-26 12:00 UTC. Updated 5 hours ago

Ground ~20,000 ft ~40,000 ft Winds

METAR

SBKG 261500Z 13009KT 9999 SCT030 26/20 Q1016

TAF

TAF SBKG 261000Z 2612/2624 13009KT 9999 SCT020 TX27/2617Z TN22/2622Z BECMG 2620/2621 CAVOK RMK PEI

Frequencies

Tower 125.90 MHz CAMPINA GRANDE RDO
Warning: Do not use this data for real-world aviation or navigation. No guarantee of current accuracy is given.